createdAt,value
2023-05-17T00:02:37.594Z,22.53
2023-05-17T00:05:04.732Z,21.20
2023-05-17T00:07:31.404Z,22.60
2023-05-17T00:09:57.864Z,18.57
2023-05-17T00:12:24.374Z,18.07
2023-05-17T00:14:50.973Z,20.10
2023-05-17T00:17:17.475Z,20.27
2023-05-17T00:19:44.059Z,19.77
2023-05-17T00:22:10.565Z,18.13
2023-05-17T00:24:37.102Z,15.73
2023-05-17T00:27:03.800Z,17.63
2023-05-17T00:29:30.409Z,17.60
2023-05-17T00:31:56.883Z,16.33
2023-05-17T00:34:23.378Z,16.87
2023-05-17T00:36:49.878Z,18.47
2023-05-17T00:39:16.351Z,18.83
2023-05-17T00:41:42.868Z,16.83
2023-05-17T00:44:09.410Z,16.93
2023-05-17T00:46:36.023Z,21.67
2023-05-17T00:49:03.509Z,17.33
2023-05-17T00:51:30.070Z,17.47
2023-05-17T00:53:56.700Z,16.33
2023-05-17T00:56:23.972Z,17.07
2023-05-17T00:58:50.756Z,19.90
2023-05-17T01:01:17.232Z,19.70
2023-05-17T01:03:43.967Z,21.93
2023-05-17T01:06:10.917Z,20.00
2023-05-17T01:08:37.545Z,25.23
2023-05-17T01:11:16.285Z,20.50
2023-05-17T01:14:01.498Z,19.83
2023-05-17T01:16:35.943Z,20.17
2023-05-17T01:19:13.769Z,22.63
2023-05-17T01:22:08.258Z,23.23
2023-05-17T01:24:51.809Z,21.43
2023-05-17T01:27:18.967Z,21.63
2023-05-17T01:29:45.918Z,23.47
2023-05-17T01:32:13.860Z,21.73
2023-05-17T01:34:41.435Z,25.67
2023-05-17T01:37:07.915Z,25.27
2023-05-17T01:39:34.524Z,21.53
2023-05-17T01:42:23.282Z,24.23
2023-05-17T01:45:12.769Z,22.23
2023-05-17T01:47:58.617Z,23.83
2023-05-17T01:50:28.005Z,26.03
2023-05-17T01:52:59.475Z,24.97
2023-05-17T01:55:42.259Z,28.67
2023-05-17T01:58:11.021Z,24.07
2023-05-17T02:00:39.557Z,29.40
2023-05-17T02:03:06.432Z,26.93
2023-05-17T02:05:33.006Z,27.33
2023-05-17T02:07:59.522Z,25.80
2023-05-17T02:10:26.006Z,24.73
2023-05-17T02:12:52.498Z,28.43
2023-05-17T02:15:19.077Z,29.87
2023-05-17T02:17:45.894Z,30.93
2023-05-17T02:20:12.965Z,28.13
2023-05-17T02:22:39.520Z,28.40
2023-05-17T02:25:07.180Z,31.07
2023-05-17T02:27:33.837Z,33.03
2023-05-17T02:30:01.874Z,29.73
2023-05-17T02:32:29.170Z,36.13
2023-05-17T02:34:56.215Z,38.57
2023-05-17T02:37:22.698Z,37.47
2023-05-17T02:39:49.183Z,38.27
2023-05-17T02:42:15.711Z,39.57
2023-05-17T02:44:42.316Z,39.17
2023-05-17T02:47:08.942Z,40.80
2023-05-17T02:49:35.655Z,38.87
2023-05-17T02:52:02.386Z,41.63
2023-05-17T02:54:29.122Z,40.80
2023-05-17T02:56:55.859Z,42.13
2023-05-17T02:59:22.395Z,44.37
2023-05-17T03:01:50.165Z,44.43
2023-05-17T03:04:16.873Z,45.57
2023-05-17T03:06:43.384Z,41.50
2023-05-17T03:09:09.890Z,45.03
2023-05-17T03:11:36.780Z,42.80
2023-05-17T03:14:03.684Z,42.80
2023-05-17T03:16:30.177Z,41.70
2023-05-17T03:18:56.991Z,41.10
2023-05-17T03:21:23.516Z,39.90
2023-05-17T03:23:50.040Z,42.30
2023-05-17T03:26:16.804Z,38.43
2023-05-17T03:28:43.294Z,44.77
2023-05-17T03:31:09.847Z,39.20
2023-05-17T03:33:36.486Z,40.30
2023-05-17T03:36:03.328Z,40.80
2023-05-17T03:38:29.945Z,39.13
2023-05-17T03:40:56.796Z,40.33
2023-05-17T03:43:23.295Z,41.73
2023-05-17T03:45:49.837Z,44.37
2023-05-17T03:48:16.456Z,40.87
2023-05-17T03:50:43.143Z,40.10
2023-05-17T03:53:10.055Z,39.37
2023-05-17T03:55:36.650Z,37.53
2023-05-17T03:58:03.232Z,34.07
2023-05-17T04:00:29.882Z,31.67
2023-05-17T04:02:56.632Z,30.90
2023-05-17T04:05:23.148Z,34.23
2023-05-17T04:07:49.824Z,29.80
2023-05-17T04:10:16.423Z,32.67
2023-05-17T04:12:42.910Z,32.07
2023-05-17T04:15:09.944Z,32.97
2023-05-17T04:17:36.505Z,34.83
2023-05-17T04:20:06.420Z,30.30
2023-05-17T04:22:33.546Z,31.63
2023-05-17T04:25:00.370Z,34.83
2023-05-17T04:27:27.001Z,36.40
2023-05-17T04:29:53.565Z,31.77
2023-05-17T04:32:20.105Z,36.07
2023-05-17T04:34:46.664Z,30.07
2023-05-17T04:37:13.223Z,26.47
2023-05-17T04:39:40.111Z,23.97
2023-05-17T04:42:06.671Z,24.60
2023-05-17T04:44:33.273Z,24.20
2023-05-17T04:46:59.831Z,24.73
2023-05-17T04:49:26.729Z,26.13
2023-05-17T04:51:53.253Z,24.07
2023-05-17T04:54:19.771Z,22.40
2023-05-17T04:56:46.258Z,21.17
2023-05-17T04:59:12.779Z,25.73
2023-05-17T05:01:39.396Z,22.47
2023-05-17T05:04:07.338Z,24.73
2023-05-17T05:06:34.585Z,23.73
2023-05-17T05:09:01.652Z,24.23
2023-05-17T05:11:28.177Z,25.60
2023-05-17T05:13:54.762Z,23.90
2023-05-17T05:16:21.282Z,23.23
2023-05-17T05:18:48.088Z,24.13
2023-05-17T05:21:14.793Z,21.23
2023-05-17T05:23:41.287Z,21.83
2023-05-17T05:26:08.336Z,18.73
2023-05-17T05:28:34.861Z,20.80
2023-05-17T05:31:01.492Z,19.53
2023-05-17T05:33:28.203Z,17.90
2023-05-17T05:35:57.224Z,19.13
2023-05-17T05:38:23.792Z,15.80
2023-05-17T05:40:50.302Z,16.63
2023-05-17T05:43:16.824Z,16.40
2023-05-17T05:45:46.762Z,16.43
2023-05-17T05:48:14.117Z,15.17
2023-05-17T05:50:44.365Z,16.07
2023-05-17T05:53:19.404Z,17.60
2023-05-17T05:55:46.496Z,19.93
2023-05-17T05:58:12.984Z,21.67
2023-05-17T06:00:39.507Z,19.43
2023-05-17T06:03:06.430Z,23.23
2023-05-17T06:05:33.393Z,24.87
2023-05-17T06:08:00.124Z,28.33
2023-05-17T06:10:26.810Z,27.53
2023-05-17T06:12:53.572Z,35.93
2023-05-17T06:15:20.123Z,32.40
2023-05-17T06:17:46.721Z,29.87
2023-05-17T06:20:13.432Z,21.80
2023-05-17T06:22:40.053Z,19.93
2023-05-17T06:25:06.736Z,18.77
2023-05-17T06:27:33.788Z,16.37
2023-05-17T06:30:00.794Z,16.57
2023-05-17T06:32:27.593Z,18.47
2023-05-17T06:34:55.583Z,15.70
2023-05-17T06:37:22.103Z,15.77
2023-05-17T06:39:55.540Z,14.47
2023-05-17T06:42:26.475Z,15.13
2023-05-17T06:44:53.033Z,14.73
2023-05-17T06:47:19.592Z,15.93
2023-05-17T06:49:46.111Z,19.97
2023-05-17T06:52:12.664Z,17.40
2023-05-17T06:54:39.172Z,17.90
2023-05-17T06:57:05.908Z,15.87
2023-05-17T06:59:32.551Z,17.03
2023-05-17T07:02:01.847Z,15.33
2023-05-17T07:04:28.526Z,15.97
2023-05-17T07:06:55.279Z,16.70
2023-05-17T07:09:21.941Z,17.13
2023-05-17T07:11:48.519Z,16.53
2023-05-17T07:14:15.069Z,16.23
2023-05-17T07:16:41.702Z,18.33
2023-05-17T07:19:08.587Z,18.37
2023-05-17T07:21:35.806Z,19.10
2023-05-17T07:24:02.632Z,16.23
2023-05-17T07:26:29.142Z,16.53
2023-05-17T07:28:55.764Z,16.50
2023-05-17T07:31:22.258Z,16.83
2023-05-17T07:33:48.817Z,18.30
2023-05-17T07:36:15.437Z,18.73
2023-05-17T07:38:42.019Z,16.80
2023-05-17T07:41:14.049Z,17.90
2023-05-17T07:43:40.642Z,18.57
2023-05-17T07:46:07.136Z,14.30
2023-05-17T07:48:34.008Z,15.13
2023-05-17T07:51:00.694Z,14.57
2023-05-17T07:53:27.174Z,13.20
2023-05-17T07:55:53.762Z,14.67
2023-05-17T07:58:20.378Z,13.77
2023-05-17T08:00:46.937Z,16.70
2023-05-17T08:03:15.689Z,13.23
2023-05-17T08:05:43.671Z,13.13
2023-05-17T08:08:10.438Z,12.13
2023-05-17T08:10:37.895Z,11.07
2023-05-17T08:13:06.142Z,11.63
2023-05-17T08:15:32.702Z,10.87
2023-05-17T08:18:00.370Z,9.77
2023-05-17T08:20:28.017Z,10.73
2023-05-17T08:22:55.046Z,11.63
2023-05-17T08:25:21.747Z,12.73
2023-05-17T08:27:48.463Z,10.70
2023-05-17T08:30:28.120Z,12.37
2023-05-17T08:32:56.591Z,9.10
2023-05-17T08:35:24.017Z,8.73
2023-05-17T08:37:52.138Z,8.00
2023-05-17T08:40:21.227Z,8.40
2023-05-17T08:42:48.452Z,10.07
2023-05-17T08:45:15.157Z,8.50
2023-05-17T08:47:43.449Z,11.23
2023-05-17T08:50:11.232Z,11.40
2023-05-17T08:52:38.176Z,10.33
2023-05-17T08:55:06.186Z,9.57
2023-05-17T08:57:34.217Z,9.03
2023-05-17T09:00:01.031Z,10.27
2023-05-17T09:02:29.808Z,12.67
2023-05-17T09:04:57.435Z,10.53
2023-05-17T09:07:24.456Z,13.87
2023-05-17T09:09:53.304Z,15.10
2023-05-17T09:12:21.879Z,12.20
2023-05-17T09:14:49.825Z,16.63
2023-05-17T09:17:21.080Z,14.73
2023-05-17T09:19:48.862Z,14.60
2023-05-17T09:22:18.852Z,16.77
2023-05-17T09:24:45.461Z,13.53
2023-05-17T09:27:17.105Z,15.70
2023-05-17T09:29:45.420Z,17.80
2023-05-17T09:32:16.586Z,16.27
2023-05-17T09:34:45.688Z,14.63
2023-05-17T09:37:14.230Z,18.90
2023-05-17T09:39:41.161Z,19.10
2023-05-17T09:42:08.758Z,17.63
2023-05-17T09:44:57.355Z,21.63
2023-05-17T09:47:28.487Z,21.70
2023-05-17T09:50:00.579Z,17.40
2023-05-17T09:52:37.029Z,19.70
2023-05-17T09:55:03.897Z,14.10
2023-05-17T09:57:37.963Z,16.73
2023-05-17T10:00:13.236Z,16.73
2023-05-17T10:02:43.375Z,19.97
2023-05-17T10:05:12.383Z,18.13
2023-05-17T10:07:39.528Z,20.10
2023-05-17T10:10:06.883Z,21.07
2023-05-17T10:12:38.458Z,25.53
2023-05-17T10:15:05.503Z,25.23
2023-05-17T10:17:32.333Z,21.20
2023-05-17T10:19:59.374Z,22.80
2023-05-17T10:22:27.709Z,18.70
2023-05-17T10:24:56.084Z,21.97
2023-05-17T10:27:23.218Z,22.63
2023-05-17T10:29:51.492Z,20.57
2023-05-17T10:32:21.485Z,20.27
2023-05-17T10:34:58.141Z,24.00
2023-05-17T10:37:33.698Z,21.17
2023-05-17T10:40:00.685Z,20.70
2023-05-17T10:42:27.921Z,21.67
2023-05-17T10:44:54.610Z,20.03
2023-05-17T10:47:21.205Z,18.30
2023-05-17T10:49:48.220Z,22.63
2023-05-17T10:52:19.330Z,17.77
2023-05-17T10:54:48.548Z,19.27
2023-05-17T10:57:39.030Z,20.10
2023-05-17T11:00:20.270Z,18.47
2023-05-17T11:02:48.876Z,16.53
2023-05-17T11:05:27.124Z,18.13
2023-05-17T11:08:17.321Z,16.87
2023-05-17T11:11:09.624Z,19.83
2023-05-17T11:13:54.888Z,15.90
2023-05-17T11:16:24.077Z,16.47
2023-05-17T11:18:52.657Z,19.43
2023-05-17T11:21:21.328Z,15.17
2023-05-17T11:23:49.477Z,13.03
2023-05-17T11:26:21.807Z,15.53
2023-05-17T11:28:49.227Z,14.60
2023-05-17T11:31:15.877Z,13.27
2023-05-17T11:33:46.156Z,19.17
2023-05-17T11:36:19.462Z,12.00
2023-05-17T11:38:55.248Z,14.60
2023-05-17T11:41:28.286Z,16.10
2023-05-17T11:43:55.455Z,14.80
2023-05-17T11:46:23.916Z,13.60
2023-05-17T11:48:53.590Z,17.80
2023-05-17T11:51:23.875Z,13.37
2023-05-17T11:53:55.154Z,17.37
2023-05-17T11:56:29.189Z,16.33
2023-05-17T11:59:04.093Z,18.77
2023-05-17T12:01:46.006Z,13.23
2023-05-17T12:04:12.733Z,14.07
2023-05-17T12:06:39.632Z,13.03
2023-05-17T12:09:11.307Z,19.27
2023-05-17T12:11:40.937Z,13.60
2023-05-17T12:14:07.559Z,12.07
2023-05-17T12:16:36.349Z,15.47
2023-05-17T12:19:03.238Z,19.33
2023-05-17T12:21:29.992Z,16.23
2023-05-17T12:23:56.508Z,19.57
2023-05-17T12:26:23.795Z,21.27
2023-05-17T12:28:54.101Z,13.07
2023-05-17T12:31:25.492Z,17.20
2023-05-17T12:33:52.524Z,16.23
2023-05-17T12:36:19.431Z,14.43
2023-05-17T12:38:47.148Z,21.73
2023-05-17T12:41:16.053Z,17.03
2023-05-17T12:43:45.192Z,20.27
2023-05-17T12:46:18.905Z,24.40
2023-05-17T12:48:46.021Z,26.93
2023-05-17T12:51:14.343Z,20.13
2023-05-17T12:53:48.871Z,15.30
2023-05-17T12:56:21.497Z,16.03
2023-05-17T12:59:08.095Z,18.13
2023-05-17T13:01:35.957Z,17.53
2023-05-17T13:04:03.763Z,17.13
2023-05-17T13:06:52.510Z,16.23
2023-05-17T13:09:20.989Z,20.47
2023-05-17T13:11:55.052Z,20.30
2023-05-17T13:14:34.806Z,21.07
2023-05-17T13:17:02.567Z,18.63
2023-05-17T13:19:29.206Z,20.83
2023-05-17T13:21:55.936Z,20.37
2023-05-17T13:24:22.498Z,19.70
2023-05-17T13:26:49.074Z,16.80
2023-05-17T13:29:16.350Z,23.10
2023-05-17T13:31:44.194Z,24.53
2023-05-17T13:34:11.163Z,16.67
2023-05-17T13:36:38.140Z,17.60
2023-05-17T13:39:04.685Z,17.33
2023-05-17T13:41:31.166Z,16.43
2023-05-17T13:43:57.725Z,24.00
2023-05-17T13:46:24.212Z,17.23
2023-05-17T13:48:50.836Z,19.87
2023-05-17T13:51:18.030Z,20.70
2023-05-17T13:53:44.707Z,23.30
2023-05-17T13:56:11.266Z,18.10
2023-05-17T13:58:37.787Z,16.73
2023-05-17T14:01:04.584Z,14.83
2023-05-17T14:03:31.226Z,17.83
2023-05-17T14:05:57.793Z,21.77
2023-05-17T14:08:24.389Z,20.07
2023-05-17T14:10:50.895Z,16.90
2023-05-17T14:13:17.562Z,20.47
2023-05-17T14:15:44.449Z,20.30
2023-05-17T14:18:11.082Z,19.57
2023-05-17T14:20:37.748Z,18.60
2023-05-17T14:23:04.388Z,20.87
2023-05-17T14:25:30.868Z,18.53
2023-05-17T14:27:57.519Z,13.07
2023-05-17T14:30:24.534Z,21.07
2023-05-17T14:32:51.164Z,18.47
2023-05-17T14:35:17.793Z,15.73
2023-05-17T14:37:44.580Z,18.17
2023-05-17T14:40:12.166Z,11.70
2023-05-17T14:42:39.286Z,16.70
2023-05-17T14:45:06.740Z,13.30
2023-05-17T14:47:35.906Z,11.30
2023-05-17T14:50:03.725Z,13.30
2023-05-17T14:52:30.548Z,16.13
2023-05-17T14:54:57.094Z,19.47
2023-05-17T14:57:23.760Z,11.60
2023-05-17T14:59:50.397Z,15.03
2023-05-17T15:02:16.849Z,11.43
2023-05-17T15:04:43.472Z,14.33
2023-05-17T15:07:10.166Z,14.23
2023-05-17T15:09:41.518Z,12.10
2023-05-17T15:12:13.932Z,14.67
2023-05-17T15:14:40.863Z,12.33
2023-05-17T15:17:07.432Z,12.10
2023-05-17T15:19:34.132Z,10.10
2023-05-17T15:22:01.673Z,20.30
2023-05-17T15:24:29.132Z,14.57
2023-05-17T15:26:56.044Z,13.87
2023-05-17T15:29:22.573Z,10.90
2023-05-17T15:31:49.118Z,13.93
2023-05-17T15:34:15.774Z,13.10
2023-05-17T15:36:42.382Z,14.27
2023-05-17T15:39:08.957Z,15.10
2023-05-17T15:41:37.290Z,15.20
2023-05-17T15:44:05.396Z,17.37
2023-05-17T15:46:32.254Z,10.73
2023-05-17T15:48:58.877Z,15.23
2023-05-17T15:51:25.586Z,17.77
2023-05-17T15:53:52.058Z,10.43
2023-05-17T15:56:20.967Z,12.43
2023-05-17T15:58:47.732Z,16.03
2023-05-17T16:01:14.711Z,12.90
2023-05-17T16:03:41.552Z,17.30
2023-05-17T16:06:08.696Z,13.83
2023-05-17T16:08:35.222Z,19.80
2023-05-17T16:11:02.782Z,16.63
2023-05-17T16:13:29.392Z,23.73
2023-05-17T16:15:57.064Z,17.60
2023-05-17T16:18:23.676Z,18.47
2023-05-17T16:20:57.927Z,16.90
2023-05-17T16:23:24.552Z,17.33
2023-05-17T16:25:51.482Z,15.73
2023-05-17T16:28:21.641Z,15.00
2023-05-17T16:30:49.614Z,13.13
2023-05-17T16:33:16.307Z,20.40
2023-05-17T16:35:43.710Z,18.40
2023-05-17T16:38:10.592Z,13.50
2023-05-17T16:40:38.691Z,17.03
2023-05-17T16:43:05.544Z,13.97
2023-05-17T16:45:32.053Z,11.30
2023-05-17T16:47:59.238Z,11.93
2023-05-17T16:50:26.091Z,10.87
2023-05-17T16:52:52.617Z,11.13
2023-05-17T16:55:19.103Z,14.87
2023-05-17T16:57:45.770Z,12.57
2023-05-17T17:00:12.804Z,18.50
2023-05-17T17:02:39.365Z,20.73
2023-05-17T17:05:06.338Z,18.40
2023-05-17T17:07:32.919Z,17.60
2023-05-17T17:09:59.410Z,20.03
2023-05-17T17:12:26.330Z,20.73
2023-05-17T17:14:53.687Z,19.13
2023-05-17T17:17:20.524Z,15.43
2023-05-17T17:19:47.423Z,14.50
2023-05-17T17:22:14.815Z,19.50
2023-05-17T17:24:41.825Z,17.50
2023-05-17T17:27:08.375Z,12.93
2023-05-17T17:29:35.298Z,13.10
2023-05-17T17:32:02.377Z,14.47
2023-05-17T17:34:29.079Z,11.30
2023-05-17T17:36:55.799Z,15.87
2023-05-17T17:39:22.370Z,12.80
2023-05-17T17:41:48.937Z,11.53
2023-05-17T17:44:15.431Z,19.43
2023-05-17T17:46:42.435Z,12.60
2023-05-17T17:49:08.993Z,13.50
2023-05-17T17:51:35.502Z,21.40
2023-05-17T17:54:04.858Z,15.43
2023-05-17T17:56:32.789Z,19.67
2023-05-17T17:58:59.848Z,16.00
2023-05-17T18:01:26.862Z,18.83
2023-05-17T18:03:53.564Z,9.70
2023-05-17T18:06:20.326Z,14.43
2023-05-17T18:08:46.931Z,15.03
2023-05-17T18:11:13.604Z,15.90
2023-05-17T18:13:40.180Z,12.07
2023-05-17T18:16:06.901Z,13.57
2023-05-17T18:18:33.911Z,12.27
2023-05-17T18:21:00.459Z,18.33
2023-05-17T18:23:27.029Z,13.57
2023-05-17T18:25:53.588Z,16.43
2023-05-17T18:28:30.000Z,10.00
2023-05-17T18:31:04.588Z,11.00
2023-05-17T18:33:31.559Z,16.50
2023-05-17T18:35:58.174Z,16.73
2023-05-17T18:38:24.639Z,13.03
2023-05-17T18:40:51.199Z,12.83
2023-05-17T18:43:17.714Z,17.30
2023-05-17T18:45:44.244Z,13.53
2023-05-17T18:48:10.844Z,11.57
2023-05-17T18:50:37.357Z,15.20
2023-05-17T18:53:03.908Z,15.17
2023-05-17T18:55:30.421Z,12.37
2023-05-17T18:57:56.912Z,20.87
2023-05-17T19:00:23.436Z,15.30
2023-05-17T19:02:49.990Z,16.97
2023-05-17T19:05:16.568Z,17.20
2023-05-17T19:07:43.077Z,13.07
2023-05-17T19:10:10.201Z,17.43
2023-05-17T19:12:36.857Z,12.03
2023-05-17T19:15:04.117Z,15.13
2023-05-17T19:17:30.818Z,21.37
2023-05-17T19:19:57.645Z,20.63
2023-05-17T19:22:24.127Z,16.60
2023-05-17T19:24:50.740Z,20.63
2023-05-17T19:27:19.605Z,16.70
2023-05-17T19:29:47.066Z,15.50
2023-05-17T19:32:13.617Z,18.97
2023-05-17T19:34:40.211Z,20.20
2023-05-17T19:37:06.796Z,15.57
2023-05-17T19:39:33.362Z,17.07
2023-05-17T19:41:59.969Z,21.10
2023-05-17T19:44:26.551Z,18.87
2023-05-17T19:46:53.231Z,18.90
2023-05-17T19:49:19.785Z,14.17
2023-05-17T19:51:46.678Z,16.60
2023-05-17T19:54:13.185Z,17.63
2023-05-17T19:56:39.694Z,15.07
2023-05-17T19:59:06.340Z,17.90
2023-05-17T20:01:32.977Z,19.83
2023-05-17T20:03:59.616Z,19.10
2023-05-17T20:06:26.443Z,17.87
2023-05-17T20:08:52.984Z,18.87
2023-05-17T20:11:19.523Z,15.07
2023-05-17T20:13:46.098Z,15.47
2023-05-17T20:16:13.207Z,18.57
2023-05-17T20:18:44.005Z,17.80
2023-05-17T20:21:12.797Z,20.37
2023-05-17T20:23:39.514Z,18.50
2023-05-17T20:26:06.208Z,17.63
2023-05-17T20:28:32.755Z,22.93
2023-05-17T20:30:59.342Z,20.03
2023-05-17T20:33:26.453Z,15.43
2023-05-17T20:35:53.792Z,17.67
2023-05-17T20:38:20.693Z,18.87
2023-05-17T20:40:47.407Z,16.80
2023-05-17T20:43:14.518Z,24.50
2023-05-17T20:45:41.182Z,20.53
2023-05-17T20:48:08.062Z,11.93
2023-05-17T20:50:34.632Z,14.37
2023-05-17T20:53:01.202Z,20.63
2023-05-17T20:55:27.717Z,25.33
2023-05-17T20:57:54.426Z,15.90
2023-05-17T21:00:21.316Z,19.97
2023-05-17T21:02:48.007Z,16.80
2023-05-17T21:05:14.867Z,19.63
2023-05-17T21:07:41.414Z,16.17
2023-05-17T21:10:08.796Z,22.40
2023-05-17T21:12:36.000Z,20.90
2023-05-17T21:15:15.947Z,15.17
2023-05-17T21:17:43.943Z,13.10
2023-05-17T21:20:11.199Z,17.93
2023-05-17T21:22:37.899Z,18.20
2023-05-17T21:25:05.076Z,25.40
2023-05-17T21:27:33.717Z,22.57
2023-05-17T21:30:00.829Z,18.40
2023-05-17T21:32:27.395Z,23.93
2023-05-17T21:34:54.558Z,16.13
2023-05-17T21:37:21.218Z,18.20
2023-05-17T21:39:47.732Z,14.83
2023-05-17T21:42:14.269Z,18.80
2023-05-17T21:44:40.836Z,24.60
2023-05-17T21:47:07.502Z,14.37
2023-05-17T21:49:34.207Z,19.17
2023-05-17T21:52:00.837Z,14.60
2023-05-17T21:54:27.353Z,17.03
2023-05-17T21:56:53.878Z,13.97
2023-05-17T21:59:20.584Z,17.10
2023-05-17T22:01:47.241Z,23.20
2023-05-17T22:04:13.983Z,24.00
2023-05-17T22:06:40.658Z,16.80
2023-05-17T22:09:07.158Z,24.97
2023-05-17T22:11:38.176Z,13.47
2023-05-17T22:14:08.018Z,10.60
2023-05-17T22:16:36.130Z,21.03
2023-05-17T22:19:03.890Z,15.57
2023-05-17T22:21:31.886Z,20.03
2023-05-17T22:23:59.151Z,15.53
2023-05-17T22:26:27.640Z,15.50
2023-05-17T22:28:54.589Z,14.23
2023-05-17T22:31:21.202Z,14.27
2023-05-17T22:33:47.836Z,17.93
2023-05-17T22:36:14.609Z,16.90
2023-05-17T22:38:42.635Z,15.60
2023-05-17T22:41:10.084Z,16.00
2023-05-17T22:43:37.152Z,13.47
2023-05-17T22:46:04.217Z,19.20
2023-05-17T22:48:32.000Z,19.30
2023-05-17T22:51:00.867Z,17.00
2023-05-17T22:53:29.079Z,15.33
2023-05-17T22:55:55.707Z,16.87
2023-05-17T22:58:25.139Z,11.63
2023-05-17T23:00:52.254Z,14.87
2023-05-17T23:03:19.525Z,12.97
2023-05-17T23:05:46.067Z,14.27
2023-05-17T23:08:15.301Z,10.97
2023-05-17T23:10:45.515Z,9.73
2023-05-17T23:13:12.717Z,10.60
2023-05-17T23:15:40.605Z,12.57
2023-05-17T23:18:07.284Z,13.30
2023-05-17T23:20:34.866Z,11.30
2023-05-17T23:23:01.793Z,12.13
2023-05-17T23:25:29.288Z,14.20
2023-05-17T23:27:57.961Z,18.93
2023-05-17T23:30:24.739Z,19.20
2023-05-17T23:32:52.208Z,9.67
2023-05-17T23:35:18.896Z,12.60
2023-05-17T23:37:45.519Z,14.27
2023-05-17T23:40:12.791Z,9.17
2023-05-17T23:42:40.409Z,7.63
2023-05-17T23:45:09.816Z,14.97
2023-05-17T23:47:40.443Z,12.33
2023-05-17T23:50:09.285Z,7.93
2023-05-17T23:52:38.850Z,10.80
2023-05-17T23:55:08.929Z,14.47
2023-05-17T23:57:35.520Z,11.33
